sensor_id;sensor_type;location;lat;lon;timestamp;temperature;humidity
22781;DHT22;11557;50.884;4.322;2024-03-17T00:02:22;10.70;99.90
22781;DHT22;11557;50.884;4.322;2024-03-17T00:04:48;10.70;99.90
22781;DHT22;11557;50.884;4.322;2024-03-17T00:07:15;10.60;99.90
22781;DHT22;11557;50.884;4.322;2024-03-17T00:09:41;10.50;99.90
22781;DHT22;11557;50.884;4.322;2024-03-17T00:12:07;10.60;99.90
22781;DHT22;11557;50.884;4.322;2024-03-17T00:14:34;10.60;99.90
22781;DHT22;11557;50.884;4.322;2024-03-17T00:17:00;10.70;99.90
22781;DHT22;11557;50.884;4.322;2024-03-17T00:19:27;10.90;99.90
22781;DHT22;11557;50.884;4.322;2024-03-17T00:21:53;11.00;99.90
22781;DHT22;11557;50.884;4.322;2024-03-17T00:24:19;11.00;99.90
22781;DHT22;11557;50.884;4.322;2024-03-17T00:26:46;10.80;99.90
22781;DHT22;11557;50.884;4.322;2024-03-17T00:29:12;10.90;99.90
22781;DHT22;11557;50.884;4.322;2024-03-17T00:31:38;10.90;99.90
22781;DHT22;11557;50.884;4.322;2024-03-17T00:34:04;11.00;99.90
22781;DHT22;11557;50.884;4.322;2024-03-17T00:36:30;11.10;99.90
22781;DHT22;11557;50.884;4.322;2024-03-17T00:38:56;10.90;99.90
22781;DHT22;11557;50.884;4.322;2024-03-17T00:41:22;11.00;99.90
22781;DHT22;11557;50.884;4.322;2024-03-17T00:43:49;11.00;99.90
22781;DHT22;11557;50.884;4.322;2024-03-17T00:46:15;10.90;99.90
22781;DHT22;11557;50.884;4.322;2024-03-17T00:48:41;10.90;99.90
22781;DHT22;11557;50.884;4.322;2024-03-17T00:51:07;10.90;99.90
22781;DHT22;11557;50.884;4.322;2024-03-17T00:53:33;10.60;99.90
22781;DHT22;11557;50.884;4.322;2024-03-17T00:55:58;10.70;99.90
22781;DHT22;11557;50.884;4.322;2024-03-17T00:58:25;10.70;99.90
22781;DHT22;11557;50.884;4.322;2024-03-17T01:00:51;10.70;99.90
22781;DHT22;11557;50.884;4.322;2024-03-17T01:03:17;10.50;99.90
22781;DHT22;11557;50.884;4.322;2024-03-17T01:05:43;10.60;99.90
22781;DHT22;11557;50.884;4.322;2024-03-17T01:08:11;10.70;99.90
22781;DHT22;11557;50.884;4.322;2024-03-17T01:10:40;10.80;99.90
22781;DHT22;11557;50.884;4.322;2024-03-17T01:13:07;10.80;99.90
22781;DHT22;11557;50.884;4.322;2024-03-17T01:15:34;10.90;99.90
22781;DHT22;11557;50.884;4.322;2024-03-17T01:18:00;10.90;99.90
22781;DHT22;11557;50.884;4.322;2024-03-17T01:20:26;10.90;99.90
22781;DHT22;11557;50.884;4.322;2024-03-17T01:22:52;10.90;99.90
22781;DHT22;11557;50.884;4.322;2024-03-17T01:25:18;10.60;99.90
22781;DHT22;11557;50.884;4.322;2024-03-17T01:27:43;10.70;99.90
22781;DHT22;11557;50.884;4.322;2024-03-17T01:30:12;10.60;99.90
22781;DHT22;11557;50.884;4.322;2024-03-17T01:32:38;10.60;99.90
22781;DHT22;11557;50.884;4.322;2024-03-17T01:35:04;10.50;99.90
22781;DHT22;11557;50.884;4.322;2024-03-17T01:37:31;10.60;99.90
22781;DHT22;11557;50.884;4.322;2024-03-17T01:39:58;10.50;99.90
22781;DHT22;11557;50.884;4.322;2024-03-17T01:42:24;10.70;99.90
22781;DHT22;11557;50.884;4.322;2024-03-17T01:44:50;10.90;99.90
22781;DHT22;11557;50.884;4.322;2024-03-17T01:47:19;11.00;99.90
22781;DHT22;11557;50.884;4.322;2024-03-17T01:49:47;11.10;99.90
22781;DHT22;11557;50.884;4.322;2024-03-17T01:52:16;11.00;99.90
22781;DHT22;11557;50.884;4.322;2024-03-17T01:54:43;10.80;99.90
22781;DHT22;11557;50.884;4.322;2024-03-17T01:57:09;10.80;99.90
22781;DHT22;11557;50.884;4.322;2024-03-17T01:59:35;10.90;99.90
22781;DHT22;11557;50.884;4.322;2024-03-17T02:02:02;10.90;99.90
22781;DHT22;11557;50.884;4.322;2024-03-17T02:04:28;11.00;99.90
22781;DHT22;11557;50.884;4.322;2024-03-17T02:06:54;10.90;99.90
22781;DHT22;11557;50.884;4.322;2024-03-17T02:09:20;10.90;99.90
22781;DHT22;11557;50.884;4.322;2024-03-17T02:11:48;11.00;99.90
22781;DHT22;11557;50.884;4.322;2024-03-17T02:14:13;10.90;99.90
22781;DHT22;11557;50.884;4.322;2024-03-17T02:16:40;10.80;99.90
22781;DHT22;11557;50.884;4.322;2024-03-17T02:19:06;10.90;99.90
22781;DHT22;11557;50.884;4.322;2024-03-17T02:21:32;10.80;99.90
22781;DHT22;11557;50.884;4.322;2024-03-17T02:23:58;10.90;99.90
22781;DHT22;11557;50.884;4.322;2024-03-17T02:26:25;10.70;99.90
22781;DHT22;11557;50.884;4.322;2024-03-17T02:28:51;10.80;99.90
22781;DHT22;11557;50.884;4.322;2024-03-17T02:31:18;10.70;99.90
22781;DHT22;11557;50.884;4.322;2024-03-17T02:33:44;10.70;99.90
22781;DHT22;11557;50.884;4.322;2024-03-17T02:36:11;10.80;99.90
22781;DHT22;11557;50.884;4.322;2024-03-17T02:38:38;10.80;99.90
22781;DHT22;11557;50.884;4.322;2024-03-17T02:41:23;10.90;99.90
22781;DHT22;11557;50.884;4.322;2024-03-17T02:43:49;10.90;99.90
22781;DHT22;11557;50.884;4.322;2024-03-17T02:46:16;10.90;99.90
22781;DHT22;11557;50.884;4.322;2024-03-17T02:48:43;11.00;99.90
22781;DHT22;11557;50.884;4.322;2024-03-17T02:51:16;11.10;99.90
22781;DHT22;11557;50.884;4.322;2024-03-17T02:53:44;11.20;99.90
22781;DHT22;11557;50.884;4.322;2024-03-17T02:56:14;11.20;99.90
22781;DHT22;11557;50.884;4.322;2024-03-17T02:58:43;11.20;99.90
22781;DHT22;11557;50.884;4.322;2024-03-17T03:01:09;11.30;99.90
22781;DHT22;11557;50.884;4.322;2024-03-17T03:03:35;11.20;99.90
22781;DHT22;11557;50.884;4.322;2024-03-17T03:06:01;11.20;99.90
22781;DHT22;11557;50.884;4.322;2024-03-17T03:08:30;11.30;99.90
22781;DHT22;11557;50.884;4.322;2024-03-17T03:10:56;11.40;99.90
22781;DHT22;11557;50.884;4.322;2024-03-17T03:13:21;11.40;99.90
22781;DHT22;11557;50.884;4.322;2024-03-17T03:15:48;11.40;99.90
22781;DHT22;11557;50.884;4.322;2024-03-17T03:18:14;11.10;99.90
22781;DHT22;11557;50.884;4.322;2024-03-17T03:20:40;10.90;99.90
22781;DHT22;11557;50.884;4.322;2024-03-17T03:23:06;11.00;99.90
22781;DHT22;11557;50.884;4.322;2024-03-17T03:25:32;10.90;99.90
22781;DHT22;11557;50.884;4.322;2024-03-17T03:28:00;10.90;99.90
22781;DHT22;11557;50.884;4.322;2024-03-17T03:30:25;10.90;99.90
22781;DHT22;11557;50.884;4.322;2024-03-17T03:32:52;10.90;99.90
22781;DHT22;11557;50.884;4.322;2024-03-17T03:35:18;10.90;99.90
22781;DHT22;11557;50.884;4.322;2024-03-17T03:37:44;10.80;99.90
22781;DHT22;11557;50.884;4.322;2024-03-17T03:40:10;10.70;99.90
22781;DHT22;11557;50.884;4.322;2024-03-17T03:42:46;10.90;99.90
22781;DHT22;11557;50.884;4.322;2024-03-17T03:45:12;10.70;99.90
22781;DHT22;11557;50.884;4.322;2024-03-17T03:47:39;10.80;99.90
22781;DHT22;11557;50.884;4.322;2024-03-17T03:50:07;10.80;99.90
22781;DHT22;11557;50.884;4.322;2024-03-17T03:52:35;10.90;99.90
22781;DHT22;11557;50.884;4.322;2024-03-17T03:55:00;10.90;99.90
22781;DHT22;11557;50.884;4.322;2024-03-17T03:57:27;10.70;99.90
22781;DHT22;11557;50.884;4.322;2024-03-17T03:59:55;10.80;99.90
22781;DHT22;11557;50.884;4.322;2024-03-17T04:02:21;10.80;99.90
22781;DHT22;11557;50.884;4.322;2024-03-17T04:04:47;10.90;99.90
22781;DHT22;11557;50.884;4.322;2024-03-17T04:07:13;10.80;99.90
22781;DHT22;11557;50.884;4.322;2024-03-17T04:09:39;10.90;99.90
22781;DHT22;11557;50.884;4.322;2024-03-17T04:12:05;11.00;99.90
22781;DHT22;11557;50.884;4.322;2024-03-17T04:14:31;10.70;99.90
22781;DHT22;11557;50.884;4.322;2024-03-17T04:16:57;10.70;99.90
22781;DHT22;11557;50.884;4.322;2024-03-17T04:19:23;10.70;99.90
22781;DHT22;11557;50.884;4.322;2024-03-17T04:21:49;10.60;99.90
22781;DHT22;11557;50.884;4.322;2024-03-17T04:24:14;10.60;99.90
22781;DHT22;11557;50.884;4.322;2024-03-17T04:26:40;10.60;99.90
22781;DHT22;11557;50.884;4.322;2024-03-17T04:29:06;10.60;99.90
22781;DHT22;11557;50.884;4.322;2024-03-17T04:31:31;10.70;99.90
22781;DHT22;11557;50.884;4.322;2024-03-17T04:33:59;10.60;99.90
22781;DHT22;11557;50.884;4.322;2024-03-17T04:36:25;10.50;99.90
22781;DHT22;11557;50.884;4.322;2024-03-17T04:38:50;10.50;99.90
22781;DHT22;11557;50.884;4.322;2024-03-17T04:41:19;10.60;99.90
22781;DHT22;11557;50.884;4.322;2024-03-17T04:43:45;10.30;99.90
22781;DHT22;11557;50.884;4.322;2024-03-17T04:46:11;10.40;99.90
22781;DHT22;11557;50.884;4.322;2024-03-17T04:48:39;11.60;99.90
22781;DHT22;11557;50.884;4.322;2024-03-17T04:51:04;10.40;99.90
22781;DHT22;11557;50.884;4.322;2024-03-17T04:53:30;10.30;99.90
22781;DHT22;11557;50.884;4.322;2024-03-17T04:58:25;10.20;99.90
22781;DHT22;11557;50.884;4.322;2024-03-17T05:00:51;10.30;99.90
22781;DHT22;11557;50.884;4.322;2024-03-17T05:03:16;10.30;99.90
22781;DHT22;11557;50.884;4.322;2024-03-17T05:05:42;10.10;99.90
22781;DHT22;11557;50.884;4.322;2024-03-17T05:08:07;10.20;99.90
22781;DHT22;11557;50.884;4.322;2024-03-17T05:10:33;10.20;99.90
22781;DHT22;11557;50.884;4.322;2024-03-17T05:12:59;10.20;99.90
22781;DHT22;11557;50.884;4.322;2024-03-17T05:15:25;10.10;99.90
22781;DHT22;11557;50.884;4.322;2024-03-17T05:17:51;9.90;99.90
22781;DHT22;11557;50.884;4.322;2024-03-17T05:20:17;10.20;99.90
22781;DHT22;11557;50.884;4.322;2024-03-17T05:22:43;9.80;99.90
22781;DHT22;11557;50.884;4.322;2024-03-17T05:25:11;10.30;99.90
22781;DHT22;11557;50.884;4.322;2024-03-17T05:27:38;10.30;99.90
22781;DHT22;11557;50.884;4.322;2024-03-17T05:30:04;10.40;99.90
22781;DHT22;11557;50.884;4.322;2024-03-17T05:32:30;10.50;99.90
22781;DHT22;11557;50.884;4.322;2024-03-17T05:34:56;10.50;99.90
22781;DHT22;11557;50.884;4.322;2024-03-17T05:37:22;10.60;99.90
22781;DHT22;11557;50.884;4.322;2024-03-17T05:39:47;10.50;99.90
22781;DHT22;11557;50.884;4.322;2024-03-17T05:42:13;10.80;99.90
22781;DHT22;11557;50.884;4.322;2024-03-17T05:44:39;10.80;99.90
22781;DHT22;11557;50.884;4.322;2024-03-17T05:47:19;10.80;99.90
22781;DHT22;11557;50.884;4.322;2024-03-17T05:49:45;10.60;99.90
22781;DHT22;11557;50.884;4.322;2024-03-17T05:52:11;10.50;99.90
22781;DHT22;11557;50.884;4.322;2024-03-17T05:54:37;10.60;99.90
22781;DHT22;11557;50.884;4.322;2024-03-17T05:57:03;10.60;99.90
22781;DHT22;11557;50.884;4.322;2024-03-17T05:59:30;10.60;99.90
22781;DHT22;11557;50.884;4.322;2024-03-17T06:01:57;10.60;99.90
22781;DHT22;11557;50.884;4.322;2024-03-17T06:04:23;10.60;99.90
22781;DHT22;11557;50.884;4.322;2024-03-17T06:06:49;10.50;99.90
22781;DHT22;11557;50.884;4.322;2024-03-17T06:09:15;10.50;99.90
22781;DHT22;11557;50.884;4.322;2024-03-17T06:11:43;10.50;99.90
22781;DHT22;11557;50.884;4.322;2024-03-17T06:14:09;10.40;99.90
22781;DHT22;11557;50.884;4.322;2024-03-17T06:16:37;10.50;99.90
22781;DHT22;11557;50.884;4.322;2024-03-17T06:19:03;10.50;99.90
22781;DHT22;11557;50.884;4.322;2024-03-17T06:21:29;10.50;99.90
22781;DHT22;11557;50.884;4.322;2024-03-17T06:23:55;10.70;99.90
22781;DHT22;11557;50.884;4.322;2024-03-17T06:26:20;10.80;99.90
22781;DHT22;11557;50.884;4.322;2024-03-17T06:28:46;11.00;99.90
22781;DHT22;11557;50.884;4.322;2024-03-17T06:31:12;11.00;99.90
22781;DHT22;11557;50.884;4.322;2024-03-17T06:33:38;11.00;99.90
22781;DHT22;11557;50.884;4.322;2024-03-17T06:36:04;11.00;99.90
22781;DHT22;11557;50.884;4.322;2024-03-17T06:38:31;11.00;99.90
22781;DHT22;11557;50.884;4.322;2024-03-17T06:40:57;11.00;99.90
22781;DHT22;11557;50.884;4.322;2024-03-17T06:43:22;11.10;99.90
22781;DHT22;11557;50.884;4.322;2024-03-17T06:45:58;10.90;99.90
22781;DHT22;11557;50.884;4.322;2024-03-17T06:48:25;10.90;99.90
22781;DHT22;11557;50.884;4.322;2024-03-17T06:50:52;10.80;99.90
22781;DHT22;11557;50.884;4.322;2024-03-17T06:53:18;10.90;99.90
22781;DHT22;11557;50.884;4.322;2024-03-17T06:55:51;11.10;99.90
22781;DHT22;11557;50.884;4.322;2024-03-17T06:58:17;10.90;99.90
22781;DHT22;11557;50.884;4.322;2024-03-17T07:00:57;11.00;99.90
22781;DHT22;11557;50.884;4.322;2024-03-17T07:03:25;11.10;99.90
22781;DHT22;11557;50.884;4.322;2024-03-17T07:05:55;11.00;99.90
22781;DHT22;11557;50.884;4.322;2024-03-17T07:08:21;11.00;99.90
22781;DHT22;11557;50.884;4.322;2024-03-17T07:11:00;11.10;99.90
22781;DHT22;11557;50.884;4.322;2024-03-17T07:13:32;11.10;99.90
22781;DHT22;11557;50.884;4.322;2024-03-17T07:15:58;11.10;99.90
22781;DHT22;11557;50.884;4.322;2024-03-17T07:18:25;10.90;99.90
22781;DHT22;11557;50.884;4.322;2024-03-17T07:20:51;11.00;99.90
22781;DHT22;11557;50.884;4.322;2024-03-17T07:23:17;11.10;99.90
22781;DHT22;11557;50.884;4.322;2024-03-17T07:25:54;11.10;99.90
22781;DHT22;11557;50.884;4.322;2024-03-17T07:28:20;11.30;99.90
22781;DHT22;11557;50.884;4.322;2024-03-17T07:30:51;10.90;99.90
22781;DHT22;11557;50.884;4.322;2024-03-17T07:33:17;11.00;99.90
22781;DHT22;11557;50.884;4.322;2024-03-17T07:35:54;11.20;99.90
22781;DHT22;11557;50.884;4.322;2024-03-17T07:38:23;11.30;99.90
22781;DHT22;11557;50.884;4.322;2024-03-17T07:41:03;11.40;99.90
22781;DHT22;11557;50.884;4.322;2024-03-17T07:43:30;11.50;99.90
22781;DHT22;11557;50.884;4.322;2024-03-17T07:46:10;11.50;99.90
22781;DHT22;11557;50.884;4.322;2024-03-17T07:48:39;11.40;99.90
22781;DHT22;11557;50.884;4.322;2024-03-17T07:51:07;11.50;99.90
22781;DHT22;11557;50.884;4.322;2024-03-17T07:53:37;11.40;99.90
22781;DHT22;11557;50.884;4.322;2024-03-17T07:56:10;11.40;99.90
22781;DHT22;11557;50.884;4.322;2024-03-17T07:58:37;11.60;99.90
22781;DHT22;11557;50.884;4.322;2024-03-17T08:01:05;11.80;99.90
22781;DHT22;11557;50.884;4.322;2024-03-17T08:03:32;11.80;99.90
22781;DHT22;11557;50.884;4.322;2024-03-17T08:05:59;11.90;99.90
22781;DHT22;11557;50.884;4.322;2024-03-17T08:08:26;12.10;99.90
22781;DHT22;11557;50.884;4.322;2024-03-17T08:10:51;12.00;99.90
22781;DHT22;11557;50.884;4.322;2024-03-17T08:13:17;12.20;99.90
22781;DHT22;11557;50.884;4.322;2024-03-17T08:15:44;12.30;99.90
22781;DHT22;11557;50.884;4.322;2024-03-17T08:18:13;12.20;99.90
22781;DHT22;11557;50.884;4.322;2024-03-17T08:20:39;12.10;99.90
22781;DHT22;11557;50.884;4.322;2024-03-17T08:23:06;12.20;99.90
22781;DHT22;11557;50.884;4.322;2024-03-17T08:25:33;12.30;99.90
22781;DHT22;11557;50.884;4.322;2024-03-17T08:27:59;12.30;99.90
22781;DHT22;11557;50.884;4.322;2024-03-17T08:30:25;12.30;99.90
22781;DHT22;11557;50.884;4.322;2024-03-17T08:32:50;12.30;99.90
22781;DHT22;11557;50.884;4.322;2024-03-17T08:35:16;12.30;99.90
22781;DHT22;11557;50.884;4.322;2024-03-17T08:37:41;12.30;99.90
22781;DHT22;11557;50.884;4.322;2024-03-17T08:40:07;12.30;99.90
22781;DHT22;11557;50.884;4.322;2024-03-17T08:42:33;12.00;99.90
22781;DHT22;11557;50.884;4.322;2024-03-17T08:44:59;11.90;99.90
22781;DHT22;11557;50.884;4.322;2024-03-17T08:47:24;12.00;99.90
22781;DHT22;11557;50.884;4.322;2024-03-17T08:49:50;12.20;99.90
22781;DHT22;11557;50.884;4.322;2024-03-17T08:52:17;12.30;99.90
22781;DHT22;11557;50.884;4.322;2024-03-17T08:54:48;12.30;99.90
22781;DHT22;11557;50.884;4.322;2024-03-17T08:57:17;13.60;99.90
22781;DHT22;11557;50.884;4.322;2024-03-17T08:59:45;12.40;99.90
22781;DHT22;11557;50.884;4.322;2024-03-17T09:02:13;12.50;99.90
22781;DHT22;11557;50.884;4.322;2024-03-17T09:04:40;12.60;99.90
22781;DHT22;11557;50.884;4.322;2024-03-17T09:07:06;12.70;99.90
22781;DHT22;11557;50.884;4.322;2024-03-17T09:09:32;12.90;99.90
22781;DHT22;11557;50.884;4.322;2024-03-17T09:11:58;12.80;99.90
22781;DHT22;11557;50.884;4.322;2024-03-17T09:14:24;12.80;99.90
22781;DHT22;11557;50.884;4.322;2024-03-17T09:16:50;12.60;99.90
22781;DHT22;11557;50.884;4.322;2024-03-17T09:19:16;12.50;99.90
22781;DHT22;11557;50.884;4.322;2024-03-17T09:21:41;12.40;99.90
22781;DHT22;11557;50.884;4.322;2024-03-17T09:24:08;12.40;99.90
22781;DHT22;11557;50.884;4.322;2024-03-17T09:26:34;12.50;99.90
22781;DHT22;11557;50.884;4.322;2024-03-17T09:29:00;12.40;99.90
22781;DHT22;11557;50.884;4.322;2024-03-17T09:31:26;12.50;99.90
22781;DHT22;11557;50.884;4.322;2024-03-17T09:33:51;12.50;99.90
22781;DHT22;11557;50.884;4.322;2024-03-17T09:36:17;12.50;99.90
22781;DHT22;11557;50.884;4.322;2024-03-17T09:38:44;12.50;99.90
22781;DHT22;11557;50.884;4.322;2024-03-17T09:41:21;12.50;99.90
22781;DHT22;11557;50.884;4.322;2024-03-17T09:43:48;12.50;99.90
22781;DHT22;11557;50.884;4.322;2024-03-17T09:46:15;12.50;99.90
22781;DHT22;11557;50.884;4.322;2024-03-17T09:48:42;12.60;99.90
22781;DHT22;11557;50.884;4.322;2024-03-17T09:51:24;12.70;99.90
22781;DHT22;11557;50.884;4.322;2024-03-17T09:53:51;12.70;99.90
22781;DHT22;11557;50.884;4.322;2024-03-17T09:56:21;12.70;99.90
22781;DHT22;11557;50.884;4.322;2024-03-17T09:58:48;12.70;99.90
22781;DHT22;11557;50.884;4.322;2024-03-17T10:01:14;12.90;99.90
22781;DHT22;11557;50.884;4.322;2024-03-17T10:03:40;12.90;99.90
22781;DHT22;11557;50.884;4.322;2024-03-17T10:06:07;12.90;99.90
22781;DHT22;11557;50.884;4.322;2024-03-17T10:08:33;13.00;99.90
22781;DHT22;11557;50.884;4.322;2024-03-17T10:11:00;14.30;99.90
22781;DHT22;11557;50.884;4.322;2024-03-17T10:13:25;13.20;99.90
22781;DHT22;11557;50.884;4.322;2024-03-17T10:15:51;13.20;99.90
22781;DHT22;11557;50.884;4.322;2024-03-17T10:18:23;13.30;99.90
22781;DHT22;11557;50.884;4.322;2024-03-17T10:20:49;13.40;99.90
22781;DHT22;11557;50.884;4.322;2024-03-17T10:23:22;13.40;99.90
22781;DHT22;11557;50.884;4.322;2024-03-17T10:25:47;13.30;99.90
22781;DHT22;11557;50.884;4.322;2024-03-17T10:28:14;13.10;99.90
22781;DHT22;11557;50.884;4.322;2024-03-17T10:30:41;13.20;99.90
22781;DHT22;11557;50.884;4.322;2024-03-17T10:33:19;13.20;99.90
22781;DHT22;11557;50.884;4.322;2024-03-17T10:35:48;13.20;99.90
22781;DHT22;11557;50.884;4.322;2024-03-17T10:38:14;13.20;99.90
22781;DHT22;11557;50.884;4.322;2024-03-17T10:40:41;13.30;99.90
22781;DHT22;11557;50.884;4.322;2024-03-17T10:43:07;13.30;99.90
22781;DHT22;11557;50.884;4.322;2024-03-17T10:45:33;13.30;99.90
22781;DHT22;11557;50.884;4.322;2024-03-17T10:48:06;13.30;99.90
22781;DHT22;11557;50.884;4.322;2024-03-17T10:50:37;13.20;99.90
22781;DHT22;11557;50.884;4.322;2024-03-17T10:53:04;13.30;99.90
22781;DHT22;11557;50.884;4.322;2024-03-17T10:55:45;13.40;99.90
22781;DHT22;11557;50.884;4.322;2024-03-17T10:58:23;13.50;99.90
22781;DHT22;11557;50.884;4.322;2024-03-17T11:00:53;13.60;99.90
22781;DHT22;11557;50.884;4.322;2024-03-17T11:03:19;13.60;99.90
22781;DHT22;11557;50.884;4.322;2024-03-17T11:05:48;13.70;99.90
22781;DHT22;11557;50.884;4.322;2024-03-17T11:08:16;13.90;99.90
22781;DHT22;11557;50.884;4.322;2024-03-17T11:10:50;14.00;99.90
22781;DHT22;11557;50.884;4.322;2024-03-17T11:15:51;14.50;99.90
22781;DHT22;11557;50.884;4.322;2024-03-17T11:23:30;15.10;99.90
22781;DHT22;11557;50.884;4.322;2024-03-17T11:25:57;15.40;99.90
22781;DHT22;11557;50.884;4.322;2024-03-17T11:28:52;15.50;99.90
22781;DHT22;11557;50.884;4.322;2024-03-17T11:31:39;15.70;99.90
22781;DHT22;11557;50.884;4.322;2024-03-17T11:34:31;16.50;99.90
22781;DHT22;11557;50.884;4.322;2024-03-17T11:36:58;15.70;99.90
22781;DHT22;11557;50.884;4.322;2024-03-17T11:39:46;15.80;99.90
22781;DHT22;11557;50.884;4.322;2024-03-17T11:42:13;16.20;99.90
22781;DHT22;11557;50.884;4.322;2024-03-17T11:45:03;15.90;99.90
22781;DHT22;11557;50.884;4.322;2024-03-17T11:47:39;15.90;99.90
22781;DHT22;11557;50.884;4.322;2024-03-17T11:50:07;16.10;99.90
22781;DHT22;11557;50.884;4.322;2024-03-17T11:52:35;16.30;99.90
22781;DHT22;11557;50.884;4.322;2024-03-17T11:55:01;16.30;99.90
22781;DHT22;11557;50.884;4.322;2024-03-17T11:57:27;16.50;99.90
22781;DHT22;11557;50.884;4.322;2024-03-17T11:59:55;16.50;99.90
22781;DHT22;11557;50.884;4.322;2024-03-17T12:02:24;16.70;99.90
22781;DHT22;11557;50.884;4.322;2024-03-17T12:04:52;16.70;99.90
22781;DHT22;11557;50.884;4.322;2024-03-17T12:07:19;16.80;99.90
22781;DHT22;11557;50.884;4.322;2024-03-17T12:09:47;16.80;99.90
22781;DHT22;11557;50.884;4.322;2024-03-17T12:12:17;17.00;99.90
22781;DHT22;11557;50.884;4.322;2024-03-17T12:14:45;18.30;99.90
22781;DHT22;11557;50.884;4.322;2024-03-17T12:17:12;17.30;99.90
22781;DHT22;11557;50.884;4.322;2024-03-17T12:19:39;17.30;99.90
22781;DHT22;11557;50.884;4.322;2024-03-17T12:22:09;17.30;99.90
22781;DHT22;11557;50.884;4.322;2024-03-17T12:24:39;17.40;99.90
22781;DHT22;11557;50.884;4.322;2024-03-17T12:27:06;17.40;99.90
22781;DHT22;11557;50.884;4.322;2024-03-17T12:32:06;17.30;99.90
22781;DHT22;11557;50.884;4.322;2024-03-17T12:34:32;17.30;99.90
22781;DHT22;11557;50.884;4.322;2024-03-17T12:36:59;17.40;99.90
22781;DHT22;11557;50.884;4.322;2024-03-17T12:39:35;17.20;99.90
22781;DHT22;11557;50.884;4.322;2024-03-17T12:42:16;17.10;99.90
22781;DHT22;11557;50.884;4.322;2024-03-17T12:47:21;16.80;99.90
22781;DHT22;11557;50.884;4.322;2024-03-17T12:49:49;16.70;99.90
22781;DHT22;11557;50.884;4.322;2024-03-17T12:52:25;16.60;99.90
22781;DHT22;11557;50.884;4.322;2024-03-17T12:54:58;16.70;99.90
22781;DHT22;11557;50.884;4.322;2024-03-17T12:57:47;16.70;99.90
22781;DHT22;11557;50.884;4.322;2024-03-17T13:00:31;16.90;99.90
22781;DHT22;11557;50.884;4.322;2024-03-17T13:02:58;16.90;99.90
22781;DHT22;11557;50.884;4.322;2024-03-17T13:05:24;16.90;99.90
22781;DHT22;11557;50.884;4.322;2024-03-17T13:07:50;16.80;99.90
22781;DHT22;11557;50.884;4.322;2024-03-17T13:10:17;16.70;99.90
22781;DHT22;11557;50.884;4.322;2024-03-17T13:12:44;16.60;99.90
22781;DHT22;11557;50.884;4.322;2024-03-17T13:15:12;16.70;99.90
22781;DHT22;11557;50.884;4.322;2024-03-17T13:17:38;16.60;99.90
22781;DHT22;11557;50.884;4.322;2024-03-17T13:20:06;16.60;99.90
22781;DHT22;11557;50.884;4.322;2024-03-17T13:22:34;16.60;99.90
22781;DHT22;11557;50.884;4.322;2024-03-17T13:25:01;16.60;99.90
22781;DHT22;11557;50.884;4.322;2024-03-17T13:27:26;16.60;99.90
22781;DHT22;11557;50.884;4.322;2024-03-17T13:29:52;16.50;99.90
22781;DHT22;11557;50.884;4.322;2024-03-17T13:32:19;16.50;99.90
22781;DHT22;11557;50.884;4.322;2024-03-17T13:34:45;16.40;99.90
22781;DHT22;11557;50.884;4.322;2024-03-17T13:37:11;16.40;99.90
22781;DHT22;11557;50.884;4.322;2024-03-17T13:39:36;16.20;99.90
22781;DHT22;11557;50.884;4.322;2024-03-17T13:42:02;16.20;99.90
22781;DHT22;11557;50.884;4.322;2024-03-17T13:44:32;16.20;99.90
22781;DHT22;11557;50.884;4.322;2024-03-17T13:46:58;16.30;99.90
22781;DHT22;11557;50.884;4.322;2024-03-17T13:49:26;16.30;99.90
22781;DHT22;11557;50.884;4.322;2024-03-17T13:51:53;16.30;99.90
22781;DHT22;11557;50.884;4.322;2024-03-17T13:54:19;16.40;99.90
22781;DHT22;11557;50.884;4.322;2024-03-17T13:56:47;16.10;99.90
22781;DHT22;11557;50.884;4.322;2024-03-17T13:59:14;16.30;99.90
22781;DHT22;11557;50.884;4.322;2024-03-17T14:01:43;16.30;99.90
22781;DHT22;11557;50.884;4.322;2024-03-17T14:04:15;16.00;99.90
22781;DHT22;11557;50.884;4.322;2024-03-17T14:06:48;16.00;99.90
22781;DHT22;11557;50.884;4.322;2024-03-17T14:09:15;15.90;99.90
22781;DHT22;11557;50.884;4.322;2024-03-17T14:11:43;15.70;99.90
22781;DHT22;11557;50.884;4.322;2024-03-17T14:14:10;15.80;99.90
22781;DHT22;11557;50.884;4.322;2024-03-17T14:16:36;15.70;99.90
22781;DHT22;11557;50.884;4.322;2024-03-17T14:19:02;15.60;99.90
22781;DHT22;11557;50.884;4.322;2024-03-17T14:21:28;15.60;99.90
22781;DHT22;11557;50.884;4.322;2024-03-17T14:23:54;15.50;99.90
22781;DHT22;11557;50.884;4.322;2024-03-17T14:26:23;15.50;99.90
22781;DHT22;11557;50.884;4.322;2024-03-17T14:28:49;15.60;99.90
22781;DHT22;11557;50.884;4.322;2024-03-17T14:31:20;15.70;99.90
22781;DHT22;11557;50.884;4.322;2024-03-17T14:33:45;15.80;99.90
22781;DHT22;11557;50.884;4.322;2024-03-17T14:36:11;15.90;99.90
22781;DHT22;11557;50.884;4.322;2024-03-17T14:38:37;15.90;99.90
22781;DHT22;11557;50.884;4.322;2024-03-17T14:41:02;15.70;99.90
22781;DHT22;11557;50.884;4.322;2024-03-17T14:43:30;15.70;99.90
22781;DHT22;11557;50.884;4.322;2024-03-17T14:45:55;15.50;99.90
22781;DHT22;11557;50.884;4.322;2024-03-17T14:48:21;15.60;99.90
22781;DHT22;11557;50.884;4.322;2024-03-17T14:50:47;15.60;99.90
22781;DHT22;11557;50.884;4.322;2024-03-17T14:53:12;15.60;99.90
22781;DHT22;11557;50.884;4.322;2024-03-17T14:55:38;15.80;99.90
22781;DHT22;11557;50.884;4.322;2024-03-17T14:58:04;15.90;99.90
22781;DHT22;11557;50.884;4.322;2024-03-17T15:00:32;15.80;99.90
22781;DHT22;11557;50.884;4.322;2024-03-17T15:02:57;15.90;99.90
22781;DHT22;11557;50.884;4.322;2024-03-17T15:05:23;15.80;99.90
22781;DHT22;11557;50.884;4.322;2024-03-17T15:07:51;15.70;99.90
22781;DHT22;11557;50.884;4.322;2024-03-17T15:10:17;15.80;99.90
22781;DHT22;11557;50.884;4.322;2024-03-17T15:12:49;15.60;99.90
22781;DHT22;11557;50.884;4.322;2024-03-17T15:15:15;15.60;99.90
22781;DHT22;11557;50.884;4.322;2024-03-17T15:17:43;15.70;99.90
22781;DHT22;11557;50.884;4.322;2024-03-17T15:20:12;15.70;99.90
22781;DHT22;11557;50.884;4.322;2024-03-17T15:22:45;15.60;99.90
22781;DHT22;11557;50.884;4.322;2024-03-17T15:25:12;15.60;99.90
22781;DHT22;11557;50.884;4.322;2024-03-17T15:27:44;15.60;99.90
22781;DHT22;11557;50.884;4.322;2024-03-17T15:30:15;15.70;99.90
22781;DHT22;11557;50.884;4.322;2024-03-17T15:32:44;15.60;99.90
22781;DHT22;11557;50.884;4.322;2024-03-17T15:35:10;15.30;99.90
22781;DHT22;11557;50.884;4.322;2024-03-17T15:37:42;15.30;99.90
22781;DHT22;11557;50.884;4.322;2024-03-17T15:40:09;15.10;99.90
22781;DHT22;11557;50.884;4.322;2024-03-17T15:42:47;15.00;99.90
22781;DHT22;11557;50.884;4.322;2024-03-17T15:45:15;14.80;99.90
22781;DHT22;11557;50.884;4.322;2024-03-17T15:47:41;14.70;99.90
22781;DHT22;11557;50.884;4.322;2024-03-17T15:50:07;14.50;99.90